createdAt,value
2022-12-15T00:45:18.513Z,59.10
2022-12-15T00:47:45.807Z,59.10
2022-12-15T00:50:31.804Z,59.00
2022-12-15T00:53:17.534Z,58.90
2022-12-15T00:56:03.905Z,58.80
2022-12-15T00:58:50.502Z,58.90
2022-12-15T01:45:57.668Z,60.60
2022-12-15T01:48:35.004Z,60.50
2022-12-15T01:51:18.034Z,60.80
2022-12-15T01:53:55.091Z,60.80
2022-12-15T01:56:27.110Z,60.50
2022-12-15T01:59:00.732Z,60.00
2022-12-15T02:46:01.773Z,59.40
2022-12-15T02:48:46.066Z,59.50
2022-12-15T02:51:32.847Z,59.80
2022-12-15T02:54:23.473Z,59.90
2022-12-15T02:57:03.919Z,60.40
2022-12-15T02:59:43.118Z,60.50
2022-12-15T03:46:32.239Z,60.30
2022-12-15T03:49:00.700Z,60.20
2022-12-15T03:51:29.040Z,60.40
2022-12-15T03:53:58.829Z,60.20
2022-12-15T03:56:27.417Z,60.80
2022-12-15T03:58:56.002Z,60.70
2022-12-15T04:46:03.077Z,59.70
2022-12-15T04:48:48.827Z,63.10
2022-12-15T04:51:34.565Z,62.80
2022-12-15T04:54:20.198Z,62.20
2022-12-15T04:57:06.259Z,63.80
2022-12-15T04:59:52.252Z,64.40
2022-12-15T05:31:02.060Z,63.80
2022-12-15T05:33:31.005Z,64.50
2022-12-15T05:35:59.782Z,63.60
2022-12-15T05:38:28.137Z,63.30
2022-12-15T05:40:59.402Z,63.40
2022-12-15T05:43:28.226Z,63.60
2022-12-15T05:46:03.348Z,63.50
2022-12-15T05:48:31.928Z,63.70
2022-12-15T05:51:05.873Z,62.90
2022-12-15T05:53:34.953Z,62.60
2022-12-15T05:56:04.566Z,62.60
2022-12-15T05:58:33.238Z,62.40
2022-12-15T06:01:08.447Z,62.20
2022-12-15T06:03:37.050Z,62.40
2022-12-15T06:06:07.253Z,62.20
2022-12-15T06:08:38.215Z,62.00
2022-12-15T06:11:07.537Z,61.60
2022-12-15T06:13:36.071Z,61.40
2022-12-15T06:16:09.531Z,61.50
2022-12-15T06:18:40.553Z,61.50
2022-12-15T06:21:12.183Z,61.50
2022-12-15T06:23:41.615Z,61.60
2022-12-15T06:26:11.992Z,61.60
2022-12-15T06:28:40.985Z,61.40
2022-12-15T06:31:13.098Z,60.80
2022-12-15T06:33:42.363Z,60.30
2022-12-15T06:36:14.078Z,61.70
2022-12-15T06:38:43.627Z,60.60
2022-12-15T06:41:14.175Z,60.60
2022-12-15T06:43:42.828Z,60.00
2022-12-15T06:46:12.751Z,59.70
2022-12-15T06:48:44.866Z,59.60
2022-12-15T06:51:17.085Z,59.10
2022-12-15T06:53:48.903Z,56.80
2022-12-15T06:56:24.471Z,56.40
2022-12-15T06:58:58.608Z,56.80
2022-12-15T07:01:29.126Z,57.20
2022-12-15T07:03:59.995Z,57.40
2022-12-15T07:06:30.202Z,58.00
2022-12-15T07:08:58.612Z,58.20
2022-12-15T07:11:27.287Z,58.10
2022-12-15T07:13:56.057Z,58.30
2022-12-15T07:16:26.751Z,58.40
2022-12-15T07:18:56.574Z,58.50
2022-12-15T07:21:24.975Z,58.80
2022-12-15T07:23:55.891Z,58.70
2022-12-15T07:26:25.506Z,58.80
2022-12-15T07:28:54.879Z,58.80
2022-12-15T07:31:23.993Z,58.90
2022-12-15T07:33:54.591Z,58.90
2022-12-15T07:36:24.734Z,59.00
2022-12-15T07:38:53.407Z,59.10
2022-12-15T07:41:22.145Z,59.10
2022-12-15T07:43:50.771Z,59.10
2022-12-15T07:46:20.038Z,59.00
2022-12-15T07:48:50.227Z,59.20
2022-12-15T07:51:21.215Z,59.20
2022-12-15T07:53:52.183Z,59.90
2022-12-15T07:56:21.479Z,59.80
2022-12-15T07:58:49.958Z,60.10
2022-12-15T08:45:14.306Z,60.40
2022-12-15T08:47:44.005Z,60.40
2022-12-15T08:50:12.267Z,60.60
2022-12-15T08:52:55.300Z,60.70
2022-12-15T08:55:29.221Z,60.80
2022-12-15T08:57:57.538Z,60.60
2022-12-15T09:48:01.840Z,56.20
2022-12-15T09:50:38.384Z,56.20
2022-12-15T09:53:36.643Z,56.20
2022-12-15T09:56:09.139Z,56.20
2022-12-15T09:58:48.094Z,56.40
2022-12-15T10:45:38.664Z,57.20
2022-12-15T10:48:18.992Z,57.10
2022-12-15T10:50:48.411Z,58.00
2022-12-15T10:53:40.493Z,58.90
2022-12-15T10:56:09.562Z,56.90
2022-12-15T10:58:50.163Z,57.80
2022-12-15T11:01:24.648Z,58.40
2022-12-15T11:03:54.972Z,58.30
2022-12-15T11:06:26.311Z,58.60
2022-12-15T11:08:58.323Z,58.80
2022-12-15T11:11:52.890Z,59.20
2022-12-15T11:14:24.226Z,59.60
2022-12-15T11:16:57.402Z,59.30
2022-12-15T11:19:39.818Z,59.50
2022-12-15T11:22:20.547Z,59.50
2022-12-15T11:24:53.800Z,59.30
2022-12-15T11:27:29.457Z,59.80
2022-12-15T11:30:05.745Z,60.20
2022-12-15T11:32:38.351Z,61.00
2022-12-15T11:35:13.475Z,62.70
2022-12-15T11:37:44.714Z,65.00
2022-12-15T11:40:33.851Z,66.60
2022-12-15T11:43:36.677Z,67.20
2022-12-15T11:46:23.831Z,70.20
2022-12-15T11:49:41.000Z,67.70
2022-12-15T11:52:25.141Z,67.60
2022-12-15T11:55:00.087Z,66.90
2022-12-15T11:57:58.050Z,66.20
2022-12-15T12:00:26.426Z,66.10
2022-12-15T12:03:20.218Z,66.10
2022-12-15T12:06:11.352Z,65.50
2022-12-15T12:09:01.839Z,65.60
2022-12-15T12:11:41.370Z,65.40
2022-12-15T12:14:31.124Z,66.70
2022-12-15T12:17:11.268Z,65.80
2022-12-15T12:19:45.010Z,65.60
2022-12-15T12:22:27.035Z,65.40
2022-12-15T12:25:00.516Z,65.50
2022-12-15T12:27:39.473Z,65.40
2022-12-15T12:30:15.542Z,65.40
2022-12-15T12:32:52.472Z,65.40
2022-12-15T12:35:32.568Z,65.00
2022-12-15T12:38:25.565Z,65.20
2022-12-15T12:41:03.882Z,64.70
2022-12-15T12:43:36.177Z,64.40
2022-12-15T12:46:12.232Z,64.60
2022-12-15T12:48:48.451Z,64.20
2022-12-15T12:51:27.173Z,64.80
2022-12-15T12:53:58.318Z,64.00
2022-12-15T12:56:40.808Z,64.60
2022-12-15T12:59:37.559Z,64.20
2022-12-15T13:02:55.635Z,64.80
2022-12-15T13:05:31.970Z,63.90
2022-12-15T13:08:45.490Z,65.60
2022-12-15T13:11:57.579Z,64.20
2022-12-15T13:14:51.691Z,69.70
2022-12-15T13:17:31.806Z,65.50
2022-12-15T13:20:27.474Z,63.40
2022-12-15T13:23:18.827Z,63.40
2022-12-15T13:25:51.865Z,65.20
2022-12-15T13:28:40.526Z,65.40
2022-12-15T13:31:41.784Z,65.00
2022-12-15T13:34:38.657Z,64.70
2022-12-15T13:37:36.230Z,64.30
2022-12-15T13:40:33.223Z,63.30
2022-12-15T13:43:11.381Z,60.50
2022-12-15T13:45:54.436Z,59.80
2022-12-15T13:48:33.740Z,60.00
2022-12-15T13:51:20.592Z,61.20
2022-12-15T13:53:54.588Z,61.00
2022-12-15T13:57:03.622Z,58.50
2022-12-15T13:59:43.810Z,54.40
2022-12-15T14:02:28.833Z,54.40
2022-12-15T14:05:17.341Z,52.20
2022-12-15T14:10:42.970Z,52.70
2022-12-15T14:13:18.499Z,53.00
2022-12-15T14:15:52.483Z,52.80
2022-12-15T14:18:31.706Z,53.40
2022-12-15T14:21:02.313Z,53.80
2022-12-15T14:23:40.587Z,53.30
2022-12-15T14:26:12.307Z,53.40
2022-12-15T14:28:43.609Z,53.70
2022-12-15T14:31:18.682Z,54.50
2022-12-15T14:33:51.513Z,55.70
2022-12-15T14:36:21.880Z,54.50
2022-12-15T14:38:55.521Z,55.10
2022-12-15T14:41:28.527Z,55.70
2022-12-15T14:46:52.830Z,60.90
2022-12-15T14:49:28.073Z,57.40
2022-12-15T14:52:02.026Z,56.20
2022-12-15T14:54:36.744Z,56.30
2022-12-15T14:57:16.496Z,56.60
2022-12-15T14:59:48.552Z,56.70
2022-12-15T15:02:23.183Z,56.70
2022-12-15T15:03:10.727Z,56.00
2022-12-15T15:05:03.306Z,56.70
2022-12-15T15:07:33.423Z,56.00
2022-12-15T15:10:02.983Z,56.10
2022-12-15T15:12:45.522Z,56.30
2022-12-15T15:15:18.690Z,56.20
2022-12-15T15:17:52.056Z,56.00
2022-12-15T15:20:27.494Z,55.90
2022-12-15T15:23:17.685Z,56.00
2022-12-15T15:25:51.490Z,56.20
2022-12-15T15:28:26.703Z,56.10
2022-12-15T15:30:57.441Z,56.30
2022-12-15T15:33:26.707Z,56.10
2022-12-15T15:35:58.631Z,56.50
2022-12-15T15:38:32.444Z,57.00
2022-12-15T15:41:03.375Z,57.60
2022-12-15T15:43:31.996Z,57.90
2022-12-15T15:46:03.988Z,58.70
2022-12-15T15:48:36.401Z,65.20
2022-12-15T15:51:07.463Z,64.60
2022-12-15T15:53:36.666Z,62.60
2022-12-15T15:56:07.822Z,67.60
2022-12-15T15:58:36.689Z,67.50
2022-12-15T16:01:11.116Z,67.60
2022-12-15T16:03:42.278Z,68.70
2022-12-15T16:06:18.206Z,68.40
2022-12-15T16:08:49.868Z,67.70
2022-12-15T16:11:18.532Z,68.90
2022-12-15T16:13:46.838Z,69.20
2022-12-15T16:16:21.587Z,70.30
2022-12-15T16:18:50.059Z,69.00
2022-12-15T16:21:20.821Z,68.60
2022-12-15T16:23:50.202Z,68.00
2022-12-15T16:26:26.741Z,67.70
2022-12-15T16:28:55.291Z,67.00
2022-12-15T16:31:37.178Z,62.40
2022-12-15T16:34:07.377Z,64.50
2022-12-15T16:36:37.125Z,65.40
2022-12-15T16:39:06.176Z,65.70
2022-12-15T16:41:34.598Z,64.20
2022-12-15T16:44:02.958Z,65.20
2022-12-15T16:46:31.573Z,65.00
2022-12-15T16:49:00.038Z,65.20
2022-12-15T16:51:35.346Z,65.50
2022-12-15T16:54:05.879Z,65.30
2022-12-15T16:56:34.470Z,65.60
2022-12-15T16:59:31.583Z,66.10
2022-12-15T17:01:51.986Z,66.20
2022-12-15T17:04:21.519Z,66.40
2022-12-15T17:06:50.300Z,66.80
2022-12-15T17:09:24.001Z,66.80
2022-12-15T17:11:53.104Z,66.80
2022-12-15T17:14:21.496Z,67.10
2022-12-15T17:16:50.320Z,67.10
2022-12-15T17:19:21.321Z,67.10
2022-12-15T17:21:53.569Z,67.20
2022-12-15T17:24:23.794Z,66.50
2022-12-15T17:26:52.479Z,66.70
2022-12-15T17:29:22.942Z,67.40
2022-12-15T17:31:51.771Z,67.20
2022-12-15T17:34:30.109Z,67.40
2022-12-15T17:37:00.319Z,67.10
2022-12-15T17:39:31.003Z,66.50
2022-12-15T17:42:01.408Z,66.20
2022-12-15T17:44:35.475Z,66.10
2022-12-15T17:47:07.946Z,65.80
2022-12-15T17:49:38.572Z,65.70
2022-12-15T17:52:21.540Z,65.40
2022-12-15T17:54:52.537Z,65.20
2022-12-15T17:57:21.051Z,65.60
2022-12-15T17:59:49.531Z,65.30
2022-12-15T18:02:18.800Z,65.30
2022-12-15T18:04:47.339Z,65.70
2022-12-15T18:07:19.463Z,65.70
2022-12-15T18:09:48.358Z,65.80
2022-12-15T18:12:23.618Z,65.90
2022-12-15T18:14:52.651Z,66.20
2022-12-15T18:17:21.187Z,66.20
2022-12-15T18:19:50.223Z,66.50
2022-12-15T18:22:23.155Z,66.80
2022-12-15T18:24:54.135Z,66.90
2022-12-15T18:27:26.502Z,67.30
2022-12-15T18:29:55.350Z,67.60
2022-12-15T18:32:26.968Z,67.90
2022-12-15T18:34:58.491Z,67.90
2022-12-15T18:37:28.334Z,67.90
2022-12-15T18:40:04.178Z,68.30
2022-12-15T18:42:34.998Z,68.30
2022-12-15T18:45:05.063Z,68.30
2022-12-15T18:47:33.793Z,68.10
2022-12-15T18:50:02.094Z,68.40
2022-12-15T18:52:34.656Z,68.60
2022-12-15T18:55:03.889Z,68.30
2022-12-15T18:57:36.767Z,68.40
2022-12-15T19:00:18.870Z,68.60
2022-12-15T19:02:48.291Z,68.80
2022-12-15T19:05:29.183Z,68.30
2022-12-15T19:08:01.111Z,68.40
2022-12-15T19:10:33.206Z,68.80
2022-12-15T19:13:03.262Z,68.60
2022-12-15T19:15:32.287Z,68.20
2022-12-15T19:18:17.925Z,68.10
2022-12-15T19:21:03.795Z,68.60
2022-12-15T19:23:32.519Z,68.00
2022-12-15T19:26:01.228Z,68.00
2022-12-15T19:28:31.000Z,67.80
2022-12-15T19:30:59.298Z,67.90
2022-12-15T19:33:27.728Z,68.10
2022-12-15T19:35:57.422Z,68.10
2022-12-15T19:38:29.689Z,68.20
2022-12-15T19:40:59.502Z,67.90
2022-12-15T19:43:28.317Z,68.00
2022-12-15T19:45:58.396Z,68.40
2022-12-15T19:48:27.105Z,68.40
2022-12-15T19:50:55.779Z,68.70
2022-12-15T19:53:28.472Z,68.90
2022-12-15T19:55:59.941Z,69.20
2022-12-15T19:58:31.436Z,69.80
2022-12-15T20:01:05.769Z,69.40
2022-12-15T20:03:35.779Z,68.40
2022-12-15T20:06:07.775Z,68.10
2022-12-15T20:08:38.907Z,67.80
2022-12-15T20:11:10.746Z,66.70
2022-12-15T20:13:39.103Z,66.90
2022-12-15T20:16:09.169Z,67.10
2022-12-15T20:18:37.606Z,67.30
2022-12-15T20:21:07.309Z,67.70
2022-12-15T20:23:36.843Z,73.40
2022-12-15T20:26:07.375Z,68.80
2022-12-15T20:28:35.952Z,68.60
2022-12-15T20:31:05.120Z,67.70
2022-12-15T20:33:35.508Z,63.00
2022-12-15T20:36:04.098Z,62.50
2022-12-15T20:38:35.738Z,61.40
2022-12-15T20:41:04.708Z,61.60
2022-12-15T20:43:34.917Z,61.70
2022-12-15T20:46:08.117Z,62.00
2022-12-15T20:48:38.224Z,60.80
2022-12-15T20:51:10.066Z,61.00
2022-12-15T20:53:39.770Z,60.70
2022-12-15T20:56:08.803Z,61.30
2022-12-15T20:58:40.168Z,61.60
2022-12-15T21:01:21.075Z,62.10
2022-12-15T21:03:54.311Z,62.30
2022-12-15T21:06:23.550Z,63.20
2022-12-15T21:08:52.313Z,63.10
2022-12-15T21:11:22.692Z,63.30
2022-12-15T21:13:53.602Z,62.50
2022-12-15T21:16:26.015Z,62.50
2022-12-15T21:19:20.221Z,62.80
2022-12-15T21:21:48.495Z,63.00
2022-12-15T21:24:20.658Z,62.50
2022-12-15T21:26:49.690Z,57.70
2022-12-15T21:29:23.080Z,53.30
2022-12-15T21:31:51.919Z,51.00
2022-12-15T21:34:21.738Z,48.60
2022-12-15T21:36:55.240Z,49.90
2022-12-15T21:39:29.430Z,51.70
2022-12-15T21:42:01.016Z,52.60
2022-12-15T21:44:29.714Z,53.20
2022-12-15T21:46:58.421Z,53.20
2022-12-15T21:49:27.372Z,53.70
2022-12-15T21:51:59.314Z,54.10
2022-12-15T21:54:31.981Z,55.60
2022-12-15T21:57:00.997Z,56.80
2022-12-15T21:59:32.667Z,59.50
2022-12-15T22:02:02.160Z,59.10
2022-12-15T22:04:34.765Z,59.00
2022-12-15T22:07:03.491Z,59.00
2022-12-15T22:09:31.877Z,59.30
2022-12-15T22:12:01.076Z,59.30
2022-12-15T22:14:32.786Z,59.40
2022-12-15T22:17:02.609Z,63.10
2022-12-15T22:19:32.384Z,67.40
2022-12-15T22:22:00.903Z,67.10
2022-12-15T22:24:29.255Z,66.10
2022-12-15T22:26:58.373Z,65.80
2022-12-15T22:29:28.141Z,65.70
2022-12-15T22:31:56.526Z,66.20
2022-12-15T22:34:28.314Z,67.20
2022-12-15T22:36:58.077Z,65.00
2022-12-15T22:39:26.539Z,62.00
2022-12-15T22:41:54.997Z,59.30
2022-12-15T22:44:26.012Z,58.90
2022-12-15T22:46:57.767Z,59.30
2022-12-15T22:49:31.491Z,59.50
2022-12-15T22:52:01.682Z,59.30
2022-12-15T22:54:32.263Z,59.60
2022-12-15T22:57:05.331Z,60.00
2022-12-15T22:59:41.346Z,60.10
2022-12-15T23:02:11.047Z,60.50
2022-12-15T23:04:39.580Z,60.80
2022-12-15T23:07:11.023Z,60.80
2022-12-15T23:09:39.547Z,61.10
2022-12-15T23:12:07.629Z,61.10
2022-12-15T23:14:53.553Z,61.50
2022-12-15T23:17:23.196Z,61.30
2022-12-15T23:19:51.785Z,61.20
2022-12-15T23:22:21.758Z,61.40
2022-12-15T23:24:50.302Z,61.20
2022-12-15T23:27:18.650Z,61.50
2022-12-15T23:29:46.988Z,61.40
2022-12-15T23:46:57.857Z,61.40
2022-12-15T23:49:26.325Z,61.80
2022-12-15T23:51:54.686Z,61.90
2022-12-15T23:54:23.531Z,61.90
2022-12-15T23:56:52.053Z,61.70
2022-12-15T23:59:20.749Z,61.70
